createdAt,value
2023-04-26T00:01:53.298Z,97474.84
2023-04-26T00:03:56.618Z,97482.97
2023-04-26T00:05:58.113Z,97485.75
2023-04-26T00:07:59.518Z,97484.19
2023-04-26T00:10:00.894Z,97488.53
2023-04-26T00:12:02.861Z,97484.78
2023-04-26T00:14:04.163Z,97482.88
2023-04-26T00:16:06.007Z,97482.75
2023-04-26T00:18:07.442Z,97488.66
2023-04-26T00:20:11.630Z,97486.81
2023-04-26T00:22:13.095Z,97490.94
2023-04-26T00:24:14.402Z,97488.41
2023-04-26T00:26:16.013Z,97486.97
2023-04-26T00:28:17.399Z,97489.72
2023-04-26T00:30:18.720Z,97490.09
2023-04-26T00:32:20.150Z,97487.91
2023-04-26T00:34:21.508Z,97491.59
2023-04-26T00:36:22.804Z,97490.16
2023-04-26T00:38:24.135Z,97492.03
2023-04-26T00:40:25.466Z,97492.16
2023-04-26T00:42:26.776Z,97497.34
2023-04-26T00:44:28.112Z,97494.97
2023-04-26T00:46:31.080Z,97488.22
2023-04-26T00:48:32.416Z,97496.84
2023-04-26T00:50:33.752Z,97494.38
2023-04-26T00:52:35.088Z,97494.47
2023-04-26T00:54:36.456Z,97498.69
2023-04-26T00:56:37.811Z,97495.25
2023-04-26T00:58:39.152Z,97501.13
2023-04-26T01:00:40.467Z,97496.88
2023-04-26T01:02:42.312Z,97496.00
2023-04-26T01:04:45.346Z,97491.75
2023-04-26T01:06:46.804Z,97490.03
2023-04-26T01:08:48.225Z,97501.94
2023-04-26T01:10:49.527Z,97498.50
2023-04-26T01:12:50.996Z,97517.22
2023-04-26T01:14:52.354Z,97517.16
2023-04-26T01:16:53.719Z,97506.94
2023-04-26T01:18:55.197Z,97506.16
2023-04-26T01:20:57.175Z,97508.72
2023-04-26T01:22:58.510Z,97514.50
2023-04-26T01:24:59.871Z,97516.13
2023-04-26T01:27:01.729Z,97513.53
2023-04-26T01:29:03.128Z,97501.59
2023-04-26T01:31:04.566Z,97504.09
2023-04-26T01:33:06.613Z,97510.06
2023-04-26T01:35:08.149Z,97513.44
2023-04-26T01:37:09.512Z,97513.53
2023-04-26T01:39:10.829Z,97519.88
2023-04-26T01:41:12.422Z,97518.22
2023-04-26T01:43:15.569Z,97514.84
2023-04-26T01:45:17.588Z,97518.25
2023-04-26T01:47:19.091Z,97519.97
2023-04-26T01:49:20.428Z,97523.47
2023-04-26T01:51:21.816Z,97522.53
2023-04-26T01:53:23.171Z,97525.03
2023-04-26T01:55:24.477Z,97535.06
2023-04-26T01:57:25.809Z,97525.53
2023-04-26T01:59:27.202Z,97528.91
2023-04-26T02:01:28.655Z,97526.41
2023-04-26T02:03:29.990Z,97518.81
2023-04-26T02:05:31.398Z,97528.22
2023-04-26T02:07:32.700Z,97533.41
2023-04-26T02:09:34.004Z,97531.72
2023-04-26T02:11:35.416Z,97535.13
2023-04-26T02:13:36.884Z,97530.88
2023-04-26T02:15:38.327Z,97536.81
2023-04-26T02:17:39.857Z,97530.00
2023-04-26T02:19:41.219Z,97532.63
2023-04-26T02:21:42.551Z,97530.84
2023-04-26T02:23:43.916Z,97522.34
2023-04-26T02:25:45.261Z,97528.31
2023-04-26T02:27:46.588Z,97526.56
2023-04-26T02:29:47.941Z,97529.03
2023-04-26T02:31:49.402Z,97533.25
2023-04-26T02:33:50.949Z,97525.56
2023-04-26T02:35:52.288Z,97524.72
2023-04-26T02:37:53.633Z,97523.94
2023-04-26T02:39:54.959Z,97382.78
2023-04-26T02:41:56.354Z,97527.34
2023-04-26T02:43:57.656Z,97528.19
2023-04-26T02:46:00.947Z,97519.53
2023-04-26T02:48:02.341Z,97521.31
2023-04-26T02:50:07.633Z,97529.06
2023-04-26T02:52:09.051Z,97522.44
2023-04-26T02:54:10.376Z,97530.25
2023-04-26T02:56:11.948Z,97521.91
2023-04-26T02:58:13.322Z,97528.75
2023-04-26T03:00:14.626Z,97537.34
2023-04-26T03:02:15.997Z,97526.34
2023-04-26T03:04:17.870Z,97522.09
2023-04-26T03:06:19.280Z,97523.78
2023-04-26T03:08:20.784Z,97520.38
2023-04-26T03:10:22.077Z,97532.25
2023-04-26T03:12:23.407Z,97527.13
2023-04-26T03:14:24.896Z,97526.28
2023-04-26T03:16:27.525Z,97527.88
2023-04-26T03:18:28.936Z,97532.97
2023-04-26T03:20:30.280Z,97528.56
2023-04-26T03:22:31.593Z,97530.94
2023-04-26T03:24:33.138Z,97531.78
2023-04-26T03:26:34.467Z,97540.13
2023-04-26T03:28:35.816Z,97531.53
2023-04-26T03:30:37.218Z,97534.09
2023-04-26T03:32:38.705Z,97532.38
2023-04-26T03:34:40.058Z,97530.69
2023-04-26T03:36:41.483Z,97540.81
2023-04-26T03:38:42.909Z,97538.19
2023-04-26T03:40:44.211Z,97543.22
2023-04-26T03:42:45.976Z,97535.53
2023-04-26T03:44:47.257Z,97536.28
2023-04-26T03:46:48.668Z,97549.13
2023-04-26T03:48:50.394Z,97548.19
2023-04-26T03:50:51.926Z,97544.06
2023-04-26T03:52:53.336Z,97549.16
2023-04-26T03:54:54.663Z,97547.44
2023-04-26T03:56:55.971Z,97544.88
2023-04-26T03:58:57.378Z,97544.88
2023-04-26T04:00:58.686Z,97549.22
2023-04-26T04:03:00.277Z,97548.41
2023-04-26T04:05:02.404Z,97554.59
2023-04-26T04:07:03.790Z,97554.63
2023-04-26T04:09:08.213Z,97555.56
2023-04-26T04:11:09.555Z,97558.28
2023-04-26T04:13:11.377Z,97558.47
2023-04-26T04:15:12.731Z,97558.53
2023-04-26T04:17:14.028Z,97561.09
2023-04-26T04:19:15.357Z,97567.06
2023-04-26T04:21:16.651Z,97564.50
2023-04-26T04:23:18.022Z,97563.72
2023-04-26T04:25:21.281Z,97566.28
2023-04-26T04:27:22.787Z,97564.53
2023-04-26T04:29:24.198Z,97568.84
2023-04-26T04:31:25.558Z,97568.78
2023-04-26T04:33:28.569Z,97573.88
2023-04-26T04:35:33.516Z,97575.34
2023-04-26T04:37:34.983Z,97577.72
2023-04-26T04:39:36.491Z,97578.50
2023-04-26T04:41:37.872Z,97583.63
2023-04-26T04:43:39.152Z,97585.31
2023-04-26T04:45:40.461Z,97590.41
2023-04-26T04:47:41.889Z,97595.50
2023-04-26T04:49:43.376Z,97590.38
2023-04-26T04:51:44.720Z,97591.84
2023-04-26T04:53:46.109Z,97590.91
2023-04-26T04:55:47.476Z,97592.44
2023-04-26T04:57:48.807Z,97595.81
2023-04-26T04:59:50.133Z,97604.84
2023-04-26T05:01:51.616Z,97596.50
2023-04-26T05:03:53.243Z,97611.13
2023-04-26T05:05:54.857Z,97607.00
2023-04-26T05:07:56.235Z,97612.22
2023-04-26T05:10:00.482Z,97607.13
2023-04-26T05:12:03.114Z,97610.59
2023-04-26T05:14:04.420Z,97614.97
2023-04-26T05:16:05.829Z,97616.81
2023-04-26T05:18:07.192Z,97611.81
2023-04-26T05:20:08.540Z,97621.16
2023-04-26T05:22:09.873Z,97619.13
2023-04-26T05:24:11.302Z,97622.47
2023-04-26T05:26:12.645Z,97628.47
2023-04-26T05:28:14.394Z,97625.97
2023-04-26T05:30:15.791Z,97630.28
2023-04-26T05:32:17.125Z,97627.69
2023-04-26T05:34:18.693Z,97629.44
2023-04-26T05:36:20.015Z,97640.66
2023-04-26T05:38:22.081Z,97639.06
2023-04-26T05:40:23.560Z,97636.59
2023-04-26T05:42:24.855Z,97640.00
2023-04-26T05:44:26.192Z,97633.19
2023-04-26T05:46:27.761Z,97644.28
2023-04-26T05:48:29.962Z,97641.72
2023-04-26T05:50:31.438Z,97647.66
2023-04-26T05:52:32.734Z,97636.53
2023-04-26T05:54:34.029Z,97643.31
2023-04-26T05:56:35.346Z,97640.78
2023-04-26T05:58:37.168Z,97645.09
2023-04-26T06:00:41.956Z,97640.78
2023-04-26T06:02:43.366Z,97640.66
2023-04-26T06:04:45.011Z,97655.94
2023-04-26T06:06:46.519Z,97644.84
2023-04-26T06:08:47.866Z,97635.47
2023-04-26T06:10:49.228Z,97646.50
2023-04-26T06:12:50.679Z,97646.41
2023-04-26T06:14:54.019Z,97636.94
2023-04-26T06:16:55.351Z,97648.88
2023-04-26T06:18:56.707Z,97642.91
2023-04-26T06:20:58.062Z,97653.13
2023-04-26T06:22:59.410Z,97644.50
2023-04-26T06:25:00.818Z,97649.56
2023-04-26T06:27:02.185Z,97648.00
2023-04-26T06:29:03.567Z,97648.72
2023-04-26T06:31:04.930Z,97550.59
2023-04-26T06:33:06.282Z,97658.19
2023-04-26T06:35:07.746Z,97645.38
2023-04-26T06:37:09.099Z,97645.34
2023-04-26T06:39:10.890Z,97653.06
2023-04-26T06:41:12.252Z,97649.72
2023-04-26T06:43:13.646Z,97661.72
2023-04-26T06:45:15.038Z,97655.81
2023-04-26T06:47:16.395Z,97653.38
2023-04-26T06:49:17.704Z,97652.53
2023-04-26T06:51:19.206Z,97653.38
2023-04-26T06:53:22.891Z,97657.72
2023-04-26T06:55:25.209Z,97661.13
2023-04-26T06:57:26.787Z,97662.00
2023-04-26T06:59:28.092Z,97658.41
2023-04-26T07:01:29.592Z,97659.28
2023-04-26T07:03:31.138Z,97661.25
2023-04-26T07:05:32.508Z,97659.38
2023-04-26T07:07:33.863Z,97672.31
2023-04-26T07:09:35.666Z,97670.94
2023-04-26T07:11:36.995Z,97674.41
2023-04-26T07:13:40.973Z,97659.72
2023-04-26T07:15:42.451Z,97661.63
2023-04-26T07:17:43.830Z,97659.88
2023-04-26T07:19:45.160Z,97656.06
2023-04-26T07:21:46.468Z,97661.63
2023-04-26T07:23:47.803Z,97667.06
2023-04-26T07:25:49.156Z,97671.69
2023-04-26T07:27:52.163Z,97663.63
2023-04-26T07:29:53.507Z,97661.47
2023-04-26T07:31:54.853Z,97661.38
2023-04-26T07:33:56.834Z,97681.84
2023-04-26T07:35:58.833Z,97674.41
2023-04-26T07:38:00.188Z,97681.56
2023-04-26T07:40:01.511Z,97666.59
2023-04-26T07:42:03.057Z,97669.84
2023-04-26T07:44:04.393Z,97659.41
2023-04-26T07:46:05.776Z,97662.56
2023-04-26T07:48:07.225Z,97668.47
2023-04-26T07:50:08.631Z,97486.41
2023-04-26T07:52:09.989Z,97668.25
2023-04-26T07:54:11.342Z,97672.44
2023-04-26T07:56:12.685Z,97663.88
2023-04-26T07:58:14.733Z,97678.53
2023-04-26T08:00:19.109Z,97660.22
2023-04-26T08:02:24.982Z,97668.31
2023-04-26T08:04:32.702Z,97671.22
2023-04-26T08:06:34.320Z,97673.34
2023-04-26T08:08:40.421Z,97669.78
2023-04-26T08:10:42.758Z,97672.94
2023-04-26T08:12:44.086Z,97678.63
2023-04-26T08:14:46.327Z,97680.84
2023-04-26T08:16:47.650Z,97686.03
2023-04-26T08:18:51.945Z,97680.09
2023-04-26T08:20:55.296Z,97673.75
2023-04-26T08:22:59.519Z,97680.88
2023-04-26T08:25:00.814Z,97674.84
2023-04-26T08:27:02.339Z,97678.84
2023-04-26T08:29:03.731Z,97676.94
2023-04-26T08:31:05.359Z,97683.81
2023-04-26T08:33:07.012Z,97686.75
2023-04-26T08:35:09.591Z,97683.00
2023-04-26T08:37:11.080Z,97682.16
2023-04-26T08:39:12.535Z,97678.25
2023-04-26T08:41:15.142Z,97675.25
2023-04-26T08:43:17.539Z,97683.28
2023-04-26T08:45:19.026Z,97680.81
2023-04-26T08:47:20.574Z,97675.34
2023-04-26T08:49:21.870Z,97681.06
2023-04-26T08:51:23.310Z,97689.97
2023-04-26T08:53:24.661Z,97689.22
2023-04-26T08:55:25.994Z,97688.34
2023-04-26T08:57:27.309Z,97684.88
2023-04-26T08:59:28.603Z,97683.66
2023-04-26T09:01:29.991Z,97689.22
2023-04-26T09:03:31.565Z,97691.63
2023-04-26T09:05:33.061Z,97683.59
2023-04-26T09:07:34.444Z,97693.84
2023-04-26T09:09:37.952Z,97688.66
2023-04-26T09:11:39.274Z,97697.28
2023-04-26T09:13:40.696Z,97695.75
2023-04-26T09:15:42.287Z,97694.50
2023-04-26T09:17:44.347Z,97703.13
2023-04-26T09:19:45.828Z,97693.28
2023-04-26T09:21:47.259Z,97693.41
2023-04-26T09:23:48.568Z,97693.59
2023-04-26T09:25:49.861Z,97704.06
2023-04-26T09:27:51.197Z,97707.38
2023-04-26T09:29:52.504Z,97716.75
2023-04-26T09:31:53.974Z,97710.00
2023-04-26T09:33:55.372Z,97705.94
2023-04-26T09:35:56.672Z,97703.25
2023-04-26T09:38:07.850Z,97706.16
2023-04-26T09:40:13.286Z,97707.16
2023-04-26T09:42:14.570Z,97701.94
2023-04-26T09:44:15.881Z,97705.91
2023-04-26T09:46:17.234Z,97698.88
2023-04-26T09:48:18.587Z,97698.75
2023-04-26T09:50:19.887Z,97698.09
2023-04-26T09:52:21.209Z,97702.56
2023-04-26T09:54:22.518Z,97693.28
2023-04-26T09:56:23.812Z,97695.91
2023-04-26T09:58:25.163Z,97693.00
2023-04-26T10:00:26.511Z,97695.56
2023-04-26T10:02:28.123Z,97696.50
2023-04-26T10:04:29.894Z,97694.97
2023-04-26T10:06:33.006Z,97689.94
2023-04-26T10:08:34.402Z,97689.16
2023-04-26T10:10:36.236Z,97696.94
2023-04-26T10:12:37.545Z,97693.59
2023-04-26T10:14:38.857Z,97697.84
2023-04-26T10:16:40.293Z,97688.41
2023-04-26T10:18:41.692Z,97693.88
2023-04-26T10:20:43.018Z,97686.91
2023-04-26T10:22:44.346Z,97695.34
2023-04-26T10:24:45.836Z,97694.59
2023-04-26T10:26:48.563Z,97697.31
2023-04-26T10:28:52.315Z,97694.41
2023-04-26T10:30:56.199Z,97690.69
2023-04-26T10:32:57.930Z,97689.66
2023-04-26T10:34:59.488Z,97680.66
2023-04-26T10:37:00.838Z,97675.31
2023-04-26T10:39:02.213Z,97676.97
2023-04-26T10:41:03.513Z,97689.63
2023-04-26T10:43:04.855Z,97686.38
2023-04-26T10:45:06.161Z,97696.78
2023-04-26T10:47:07.555Z,97690.34
2023-04-26T10:49:08.912Z,97691.47
2023-04-26T10:51:13.049Z,97691.69
2023-04-26T10:53:14.417Z,97691.81
2023-04-26T10:55:15.728Z,97691.09
2023-04-26T10:57:17.299Z,97692.75
2023-04-26T10:59:36.350Z,97685.63
2023-04-26T11:01:40.490Z,97683.06
2023-04-26T11:03:42.059Z,97676.44
2023-04-26T11:05:43.695Z,97683.41
2023-04-26T11:07:45.034Z,97682.75
2023-04-26T11:09:46.558Z,97690.53
2023-04-26T11:11:47.859Z,97699.19
2023-04-26T11:13:49.155Z,97705.19
2023-04-26T11:15:52.047Z,97698.41
2023-04-26T11:17:53.984Z,97700.94
2023-04-26T11:19:55.362Z,97700.09
2023-04-26T11:21:56.732Z,97701.56
2023-04-26T11:23:58.029Z,97701.88
2023-04-26T11:25:59.504Z,97693.66
2023-04-26T11:28:01.317Z,97697.25
2023-04-26T11:30:02.631Z,97688.56
2023-04-26T11:32:04.084Z,97688.22
2023-04-26T11:34:05.418Z,97675.97
2023-04-26T11:36:06.734Z,97677.16
2023-04-26T11:38:08.186Z,97683.44
2023-04-26T11:40:09.504Z,97692.16
2023-04-26T11:42:11.025Z,97690.66
2023-04-26T11:44:12.720Z,97693.25
2023-04-26T11:46:14.097Z,97697.59
2023-04-26T11:48:15.467Z,97705.31
2023-04-26T11:50:16.789Z,97695.94
2023-04-26T11:52:18.085Z,97707.81
2023-04-26T11:54:19.383Z,97700.09
2023-04-26T11:56:20.771Z,97705.09
2023-04-26T11:58:22.085Z,97710.13
2023-04-26T12:00:23.430Z,97709.13
2023-04-26T12:02:24.859Z,97707.31
2023-04-26T12:04:27.601Z,97704.66
2023-04-26T12:06:33.096Z,97703.78
2023-04-26T12:08:34.482Z,97702.06
2023-04-26T12:10:35.922Z,97711.31
2023-04-26T12:12:37.335Z,97705.19
2023-04-26T12:14:38.703Z,97704.34
2023-04-26T12:16:40.065Z,97696.78
2023-04-26T12:18:41.494Z,97709.59
2023-04-26T12:20:42.798Z,97710.56
2023-04-26T12:22:44.130Z,97721.78
2023-04-26T12:24:47.594Z,97717.63
2023-04-26T12:26:48.895Z,97721.97
2023-04-26T12:28:50.499Z,97731.50
2023-04-26T12:30:51.805Z,97734.97
2023-04-26T12:32:54.352Z,97729.09
2023-04-26T12:34:59.048Z,97736.75
2023-04-26T12:37:00.407Z,97735.06
2023-04-26T12:39:05.243Z,97732.25
2023-04-26T12:41:07.152Z,97731.25
2023-04-26T12:43:08.575Z,97730.47
2023-04-26T12:45:10.139Z,97723.75
2023-04-26T12:47:11.432Z,97726.38
2023-04-26T12:49:12.770Z,97720.44
2023-04-26T12:51:14.332Z,97725.47
2023-04-26T12:53:15.736Z,97714.22
2023-04-26T12:55:17.141Z,97721.91
2023-04-26T12:57:18.454Z,97724.69
2023-04-26T12:59:19.753Z,97720.41
2023-04-26T13:01:21.376Z,97724.53
2023-04-26T13:03:22.867Z,97722.78
2023-04-26T13:05:29.592Z,97720.34
2023-04-26T13:07:30.964Z,97713.28
2023-04-26T13:09:32.267Z,97713.97
2023-04-26T13:11:33.582Z,97716.38
2023-04-26T13:13:43.007Z,97715.50
2023-04-26T13:15:44.732Z,97712.94
2023-04-26T13:17:46.270Z,97710.41
2023-04-26T13:19:47.632Z,97712.03
2023-04-26T13:21:49.016Z,97720.47
2023-04-26T13:23:50.563Z,97714.41
2023-04-26T13:25:54.571Z,97715.69
2023-04-26T13:27:55.897Z,97720.28
2023-04-26T13:29:57.297Z,97710.81
2023-04-26T13:32:02.143Z,97706.72
2023-04-26T13:34:03.441Z,97712.59
2023-04-26T13:36:04.740Z,97710.88
2023-04-26T13:38:06.123Z,97711.72
2023-04-26T13:40:07.492Z,97723.53
2023-04-26T13:42:08.852Z,97721.72
2023-04-26T13:44:14.263Z,97719.94
2023-04-26T13:46:15.618Z,97726.56
2023-04-26T13:48:17.473Z,97727.94
2023-04-26T13:50:20.090Z,97724.13
2023-04-26T13:52:21.745Z,97720.41
2023-04-26T13:54:23.188Z,97720.16
2023-04-26T13:56:26.197Z,97723.50
2023-04-26T13:58:27.680Z,97715.56
2023-04-26T14:00:29.024Z,97732.13
2023-04-26T14:02:30.411Z,97730.66
2023-04-26T14:04:31.996Z,97724.03
2023-04-26T14:06:34.136Z,97730.19
2023-04-26T14:08:35.576Z,97735.44
2023-04-26T14:10:36.911Z,97736.44
2023-04-26T14:12:38.320Z,97736.53
2023-04-26T14:14:39.669Z,97728.16
2023-04-26T14:16:41.232Z,97735.88
2023-04-26T14:18:45.130Z,97729.09
2023-04-26T14:20:46.875Z,97730.88
2023-04-26T14:22:50.227Z,97727.41
2023-04-26T14:24:51.644Z,97735.06
2023-04-26T14:26:52.961Z,97733.53
2023-04-26T14:28:54.312Z,97731.81
2023-04-26T14:30:55.676Z,97741.19
2023-04-26T14:32:57.052Z,97738.53
2023-04-26T14:34:58.438Z,97749.38
2023-04-26T14:37:02.267Z,97734.25
2023-04-26T14:39:03.595Z,97742.09
2023-04-26T14:41:04.893Z,97733.75
2023-04-26T14:43:06.290Z,97738.16
2023-04-26T14:45:07.593Z,97735.66
2023-04-26T14:47:11.663Z,97738.22
2023-04-26T14:49:12.970Z,97746.03
2023-04-26T14:51:14.313Z,97748.66
2023-04-26T14:53:15.961Z,97747.91
2023-04-26T14:55:17.612Z,97747.16
2023-04-26T14:57:21.589Z,97755.75
2023-04-26T14:59:22.892Z,97751.53
2023-04-26T15:01:25.173Z,97752.34
2023-04-26T15:03:27.763Z,97778.63
2023-04-26T15:05:30.164Z,97745.31
2023-04-26T15:07:32.825Z,97748.53
2023-04-26T15:09:34.479Z,97748.28
2023-04-26T15:11:36.054Z,97752.25
2023-04-26T15:13:40.430Z,97749.47
2023-04-26T15:15:42.226Z,97747.59
2023-04-26T15:17:43.615Z,97749.94
2023-04-26T15:19:44.960Z,97745.56
2023-04-26T15:21:46.315Z,97744.50
2023-04-26T15:23:47.678Z,97751.94
2023-04-26T15:25:49.002Z,97742.63
2023-04-26T15:27:50.701Z,97743.63
2023-04-26T15:29:52.026Z,97746.28
2023-04-26T15:31:53.378Z,97746.34
2023-04-26T15:33:55.128Z,97747.34
2023-04-26T15:35:59.527Z,97619.50
2023-04-26T15:38:03.884Z,97750.06
2023-04-26T15:40:06.206Z,97745.13
2023-04-26T15:42:07.559Z,97742.66
2023-04-26T15:44:08.881Z,97747.84
2023-04-26T15:46:10.227Z,97753.09
2023-04-26T15:48:12.045Z,97750.69
2023-04-26T15:50:13.364Z,97749.06
2023-04-26T15:52:17.039Z,97750.94
2023-04-26T15:54:18.354Z,97751.91
2023-04-26T15:56:19.661Z,97754.53
2023-04-26T15:58:20.962Z,97753.72
2023-04-26T16:00:22.630Z,97752.94
2023-04-26T16:02:24.021Z,97748.75
2023-04-26T16:04:28.442Z,97749.59
2023-04-26T16:06:30.160Z,97753.06
2023-04-26T16:08:40.030Z,97755.63
2023-04-26T16:10:42.179Z,97744.69
2023-04-26T16:12:44.491Z,97777.06
2023-04-26T16:14:52.405Z,97748.13
2023-04-26T16:16:53.699Z,97760.91
2023-04-26T16:18:54.993Z,97754.09
2023-04-26T16:20:56.345Z,97766.03
2023-04-26T16:23:03.324Z,97754.97
2023-04-26T16:25:06.847Z,97769.44
2023-04-26T16:27:09.154Z,97757.50
2023-04-26T16:29:10.480Z,97761.72
2023-04-26T16:31:11.887Z,97767.63
2023-04-26T16:33:16.215Z,97760.81
2023-04-26T16:35:17.567Z,97761.56
2023-04-26T16:37:18.953Z,97765.69
2023-04-26T16:39:21.555Z,97771.56
2023-04-26T16:41:27.431Z,97770.59
2023-04-26T16:43:29.000Z,97768.78
2023-04-26T16:45:31.385Z,97773.75
2023-04-26T16:47:32.675Z,97773.59
2023-04-26T16:49:34.272Z,97772.69
2023-04-26T16:51:35.909Z,97778.72
2023-04-26T16:53:40.292Z,97772.69
2023-04-26T16:55:41.609Z,97769.31
2023-04-26T16:57:42.942Z,97775.34
2023-04-26T16:59:44.252Z,97771.91
2023-04-26T17:01:46.474Z,97777.03
2023-04-26T17:03:48.729Z,97772.84
2023-04-26T17:05:50.182Z,97779.75
2023-04-26T17:07:51.678Z,97776.44
2023-04-26T17:09:53.810Z,97784.13
2023-04-26T17:11:55.174Z,97779.94
2023-04-26T17:13:57.178Z,97777.44
2023-04-26T17:15:58.516Z,97775.00
2023-04-26T17:18:00.109Z,97778.44
2023-04-26T17:20:02.240Z,97777.63
2023-04-26T17:22:03.572Z,97791.31
2023-04-26T17:24:07.834Z,97788.06
2023-04-26T17:26:09.172Z,97785.56
2023-04-26T17:28:10.788Z,97786.41
2023-04-26T17:30:12.162Z,97789.84
2023-04-26T17:32:13.516Z,97789.03
2023-04-26T17:34:14.880Z,97789.88
2023-04-26T17:36:16.422Z,97800.94
2023-04-26T17:38:17.752Z,97795.88
2023-04-26T17:40:19.125Z,97797.59
2023-04-26T17:42:23.391Z,97791.63
2023-04-26T17:44:27.581Z,97795.06
2023-04-26T17:46:31.909Z,97795.94
2023-04-26T17:48:33.235Z,97800.16
2023-04-26T17:50:37.404Z,97795.88
2023-04-26T17:52:39.353Z,97810.38
2023-04-26T17:54:43.368Z,97811.28
2023-04-26T17:56:44.704Z,97806.09
2023-04-26T17:58:49.053Z,97807.81
2023-04-26T18:00:50.589Z,97806.06
2023-04-26T18:02:52.012Z,97803.50
2023-04-26T18:04:54.042Z,97676.09
2023-04-26T18:06:55.545Z,97811.94
2023-04-26T18:08:59.752Z,97810.13
2023-04-26T18:11:01.350Z,97809.19
2023-04-26T18:13:02.822Z,97814.25
2023-04-26T18:15:04.152Z,97820.13
2023-04-26T18:17:05.497Z,97816.78
2023-04-26T18:19:06.863Z,97826.22
2023-04-26T18:21:08.287Z,97821.25
2023-04-26T18:23:09.598Z,97820.50
2023-04-26T18:25:13.952Z,97824.03
2023-04-26T18:27:15.517Z,97832.69
2023-04-26T18:29:16.923Z,97831.84
2023-04-26T18:31:18.289Z,97831.97
2023-04-26T18:33:19.854Z,97837.03
2023-04-26T18:35:21.341Z,97837.81
2023-04-26T18:37:25.316Z,97830.13
2023-04-26T18:39:26.624Z,97824.19
2023-04-26T18:41:27.909Z,97837.75
2023-04-26T18:43:29.228Z,97844.50
2023-04-26T18:45:30.554Z,97841.91
2023-04-26T18:47:31.915Z,97846.97
2023-04-26T18:49:33.408Z,97846.06
2023-04-26T18:51:34.706Z,97846.84
2023-04-26T18:53:38.973Z,97853.63
2023-04-26T18:55:40.594Z,97853.66
2023-04-26T18:57:41.902Z,97852.81
2023-04-26T18:59:43.213Z,97857.00
2023-04-26T19:01:47.343Z,97850.16
2023-04-26T19:03:48.932Z,97848.44
2023-04-26T19:05:50.411Z,97856.06
2023-04-26T19:07:54.639Z,97853.53
2023-04-26T19:09:56.988Z,97858.63
2023-04-26T19:12:00.250Z,97852.69
2023-04-26T19:14:04.611Z,97857.88
2023-04-26T19:16:09.241Z,97853.63
2023-04-26T19:18:10.941Z,97854.47
2023-04-26T19:20:14.026Z,97850.25
2023-04-26T19:22:15.321Z,97859.63
2023-04-26T19:24:16.657Z,97856.28
2023-04-26T19:26:18.027Z,97860.50
2023-04-26T19:28:20.097Z,97860.53
2023-04-26T19:30:22.119Z,97857.97
2023-04-26T19:32:23.825Z,97863.09
2023-04-26T19:34:26.117Z,97860.59
2023-04-26T19:36:27.595Z,97859.78
2023-04-26T19:38:28.948Z,97858.88
2023-04-26T19:40:30.294Z,97864.00
2023-04-26T19:42:31.613Z,97862.34
2023-04-26T19:44:36.126Z,97859.78
2023-04-26T19:46:40.957Z,97868.25
2023-04-26T19:48:42.364Z,97864.91
2023-04-26T19:50:43.823Z,97861.50
2023-04-26T19:52:45.415Z,97865.75
2023-04-26T19:54:46.792Z,97868.31
2023-04-26T19:56:48.108Z,97869.19
2023-04-26T19:58:49.458Z,97858.16
2023-04-26T20:00:51.143Z,97867.44
2023-04-26T20:02:52.897Z,97864.91
2023-04-26T20:04:54.342Z,97874.25
2023-04-26T20:06:56.206Z,97867.44
2023-04-26T20:08:57.613Z,97866.56
2023-04-26T20:10:59.003Z,97873.38
2023-04-26T20:13:00.721Z,97875.06
2023-04-26T20:15:02.139Z,97875.00
2023-04-26T20:17:03.971Z,97872.44
2023-04-26T20:19:05.692Z,97869.03
2023-04-26T20:21:07.201Z,97869.88
2023-04-26T20:23:08.572Z,97868.16
2023-04-26T20:25:09.926Z,97876.66
2023-04-26T20:27:11.236Z,97873.25
2023-04-26T20:29:15.893Z,97880.00
2023-04-26T20:31:17.363Z,97880.91
2023-04-26T20:33:21.770Z,97878.28
2023-04-26T20:35:23.096Z,97869.78
2023-04-26T20:37:24.396Z,97868.91
2023-04-26T20:39:28.284Z,97873.97
2023-04-26T20:41:29.636Z,97874.88
2023-04-26T20:43:30.946Z,97873.19
2023-04-26T20:45:32.298Z,97872.38
2023-04-26T20:47:36.531Z,97866.47
2023-04-26T20:49:37.871Z,97874.16
2023-04-26T20:51:39.174Z,97881.00
2023-04-26T20:53:41.025Z,97880.22
2023-04-26T20:55:42.361Z,97877.69
2023-04-26T20:57:43.703Z,97881.13
2023-04-26T20:59:45.066Z,97880.34
2023-04-26T21:01:46.379Z,97877.81
2023-04-26T21:03:47.897Z,97876.09
2023-04-26T21:05:49.339Z,97882.06
2023-04-26T21:07:50.674Z,97882.88
2023-04-26T21:09:52.313Z,97882.00
2023-04-26T21:11:54.121Z,97886.31
2023-04-26T21:13:58.402Z,97884.56
2023-04-26T21:15:59.766Z,97887.97
2023-04-26T21:18:01.141Z,97884.56
2023-04-26T21:20:02.542Z,97877.38
2023-04-26T21:22:03.883Z,97880.94
2023-04-26T21:24:05.190Z,97874.50
2023-04-26T21:26:06.686Z,97871.81
2023-04-26T21:28:08.135Z,97876.91
2023-04-26T21:30:09.430Z,97882.53
2023-04-26T21:32:11.684Z,97883.56
2023-04-26T21:34:13.100Z,97877.59
2023-04-26T21:36:14.478Z,97877.69
2023-04-26T21:38:15.925Z,97880.16
2023-04-26T21:40:17.264Z,97889.78
2023-04-26T21:42:18.736Z,97885.97
2023-04-26T21:44:20.077Z,97897.06
2023-04-26T21:46:21.472Z,97893.97
2023-04-26T21:48:22.814Z,97889.38
2023-04-26T21:50:24.166Z,97887.88
2023-04-26T21:52:25.938Z,97894.91
2023-04-26T21:54:27.233Z,97898.47
2023-04-26T21:56:28.627Z,97898.41
2023-04-26T21:58:29.915Z,97899.38
2023-04-26T22:00:31.913Z,97901.97
2023-04-26T22:02:33.447Z,97900.09
2023-04-26T22:04:34.906Z,97899.31
2023-04-26T22:06:36.272Z,97906.47
2023-04-26T22:08:38.602Z,97902.81
2023-04-26T22:10:39.959Z,97903.31
2023-04-26T22:12:41.434Z,97899.78
2023-04-26T22:14:42.760Z,97897.63
2023-04-26T22:16:44.107Z,97905.03
2023-04-26T22:18:45.602Z,97909.44
2023-04-26T22:20:47.005Z,97904.47
2023-04-26T22:22:48.313Z,97906.66
2023-04-26T22:24:49.620Z,97914.44
2023-04-26T22:26:51.205Z,97916.28
2023-04-26T22:28:52.504Z,97910.47
2023-04-26T22:30:53.797Z,97911.19
2023-04-26T22:32:55.711Z,97917.28
2023-04-26T22:34:57.094Z,97912.25
2023-04-26T22:37:06.202Z,97921.09
2023-04-26T22:39:14.868Z,97924.56
2023-04-26T22:41:16.363Z,97924.09
2023-04-26T22:43:17.677Z,97916.91
2023-04-26T22:45:19.067Z,97918.44
2023-04-26T22:47:22.795Z,97923.59
2023-04-26T22:49:24.096Z,97915.22
2023-04-26T22:51:25.530Z,97920.81
2023-04-26T22:53:26.820Z,97919.88
2023-04-26T22:55:28.198Z,97923.72
2023-04-26T22:57:29.663Z,97925.66
2023-04-26T22:59:34.191Z,97930.59
2023-04-26T23:01:35.679Z,97933.28
2023-04-26T23:03:37.159Z,97925.94
2023-04-26T23:05:38.567Z,97927.72
2023-04-26T23:07:39.948Z,97934.59
2023-04-26T23:09:41.327Z,97939.78
2023-04-26T23:11:42.693Z,97936.00
2023-04-26T23:13:44.016Z,97932.34
2023-04-26T23:15:45.610Z,97938.94
2023-04-26T23:17:47.038Z,97933.69
2023-04-26T23:19:48.417Z,97930.13
2023-04-26T23:21:49.728Z,97941.13
2023-04-26T23:23:51.192Z,97929.63
2023-04-26T23:25:52.516Z,97931.72
2023-04-26T23:27:53.808Z,97936.63
2023-04-26T23:29:55.117Z,97941.06
2023-04-26T23:31:56.545Z,97939.00
2023-04-26T23:33:57.935Z,97937.25
2023-04-26T23:35:59.274Z,97940.53
2023-04-26T23:38:00.585Z,97939.28
2023-04-26T23:40:02.251Z,97945.34
2023-04-26T23:42:03.946Z,97947.44
2023-04-26T23:44:05.740Z,97942.50
2023-04-26T23:46:07.158Z,97939.25
2023-04-26T23:48:08.527Z,97941.91
2023-04-26T23:50:09.866Z,97944.09
2023-04-26T23:52:11.511Z,97944.13